Time;durP1;ratioP1;P1;durP2;ratioP2;P2;SDS_P1;SDS_P2;PMS_P1;PMS_P2;Temp;Humidity;BMP_temperature;BMP_pressure;BME280_temperature;BME280_humidity;BME280_pressure;Samples;Min_cycle;Max_cycle;Signal;HPM_P1;HPM_P2
2022/04/17 00:01:55;;;;;;;;;5.00;5.00;;;;;13.37;43.84;102285.91;5061224;28;46087;-74
2022/04/17 00:04:20;;;;;;;;;6.00;4.00;;;;;13.41;44.09;102298.47;5064592;28;45406;-74
2022/04/17 00:06:46;;;;;;;;;6.00;6.00;;;;;13.18;45.04;102263.03;5061666;28;45170;-73
2022/04/17 00:09:11;;;;;;;;;4.00;4.00;;;;;13.23;43.89;102276.50;5072358;28;45469;-74
2022/04/17 00:11:38;;;;;;;;;6.50;5.00;;;;;13.18;44.42;102271.00;5059627;28;47479;-74
2022/04/17 00:14:03;;;;;;;;;3.75;3.75;;;;;13.29;44.42;102291.78;5066489;28;45379;-73
2022/04/17 00:16:29;;;;;;;;;4.25;4.25;;;;;13.06;44.22;102254.63;5061054;28;45303;-74
2022/04/17 00:18:54;;;;;;;;;4.50;4.50;;;;;13.23;44.36;102287.13;5067324;28;45505;-74
2022/04/17 00:21:22;;;;;;;;;4.00;4.00;;;;;13.20;44.45;102276.38;5073858;28;45377;-74
2022/04/17 00:23:48;;;;;;;;;4.00;4.00;;;;;13.16;44.82;102279.75;5065851;28;45324;-74
2022/04/17 00:26:13;;;;;;;;;4.25;4.00;;;;;13.11;44.55;102276.03;5074200;28;45535;-74
2022/04/17 00:28:39;;;;;;;;;4.75;4.25;;;;;12.97;44.41;102256.94;5067631;28;45785;-74
2022/04/17 00:31:04;;;;;;;;;6.50;5.25;;;;;13.07;44.39;102279.41;5073696;28;46068;-74
2022/04/17 00:33:31;;;;;;;;;4.75;4.75;;;;;12.81;44.31;102241.28;5065834;28;45437;-74
2022/04/17 00:35:57;;;;;;;;;3.25;3.25;;;;;12.99;44.44;102276.47;5072386;27;45284;-73
2022/04/17 00:38:22;;;;;;;;;5.50;4.50;;;;;12.90;44.28;102261.09;5065228;28;45324;-73
2022/04/17 00:40:47;;;;;;;;;4.50;4.50;;;;;12.75;44.49;102239.28;5071937;27;45449;-73
2022/04/17 00:43:34;;;;;;;;;3.50;3.50;;;;;12.90;44.39;102273.47;5063771;28;45249;-73
2022/04/17 00:46:00;;;;;;;;;5.00;4.00;;;;;12.53;44.03;102222.53;5068558;28;45328;-74
2022/04/17 00:48:26;;;;;;;;;5.00;5.00;;;;;12.66;44.34;102250.47;5065997;28;45592;-73
2022/04/17 00:50:55;;;;;;;;;5.00;5.00;;;;;12.69;44.41;102260.28;5073372;28;47113;-73
2022/04/17 00:53:22;;;;;;;;;5.50;4.50;;;;;12.74;44.32;102275.53;5067050;28;45347;-74
2022/04/17 00:55:49;;;;;;;;;7.25;5.00;;;;;12.72;44.49;102271.91;5070684;28;45299;-74
2022/04/17 00:58:15;;;;;;;;;5.50;5.50;;;;;12.64;44.53;102259.19;5069087;28;45363;-74
2022/04/17 01:00:41;;;;;;;;;6.00;4.50;;;;;12.49;44.73;102240.91;5066985;28;47150;-74
2022/04/17 01:03:07;;;;;;;;;7.00;6.50;;;;;12.54;44.53;102261.47;5069266;28;45522;-74
2022/04/17 01:05:33;;;;;;;;;6.25;5.00;;;;;12.43;43.67;102243.31;5068710;28;45353;-74
2022/04/17 01:07:59;;;;;;;;;5.00;5.00;;;;;12.52;44.72;102265.81;5062315;28;45827;-73
2022/04/17 01:10:24;;;;;;;;;5.00;4.00;;;;;12.52;44.67;102262.28;5060283;28;45288;-73
2022/04/17 01:12:53;;;;;;;;;5.00;5.00;;;;;12.41;44.58;102248.59;5061126;28;45924;-73
2022/04/17 01:15:19;;;;;;;;;6.75;5.50;;;;;12.21;44.34;102215.03;5069192;28;45356;-73
2022/04/17 01:17:44;;;;;;;;;4.00;4.00;;;;;12.40;44.57;102262.66;5062306;28;45390;-74
2022/04/17 01:20:10;;;;;;;;;7.50;6.00;;;;;12.18;44.29;102221.13;5069713;27;46498;-73
2022/04/17 01:22:35;;;;;;;;;10.75;7.50;;;;;11.93;45.38;102179.50;5065029;27;45495;-73
2022/04/17 01:27:45;;;;;;;;;14.00;14.00;;;;;11.99;44.94;102206.22;5062136;28;45662;-73
2022/04/17 01:30:10;;;;;;;;;23.50;19.00;;;;;12.22;45.71;102251.31;5073661;28;45226;-73
2022/04/17 01:32:36;;;;;;;;;18.50;16.25;;;;;12.01;45.74;102208.94;5064463;27;45619;-74
2022/04/17 01:35:01;;;;;;;;;10.25;10.25;;;;;12.18;44.69;102244.06;5066842;27;45523;-74
2022/04/17 01:37:26;;;;;;;;;30.25;27.75;;;;;11.81;45.55;102186.88;5062739;27;45523;-73
2022/04/17 01:39:52;;;;;;;;;35.25;26.50;;;;;12.12;45.20;102239.44;5069373;28;45279;-74
2022/04/17 01:42:17;;;;;;;;;34.50;29.00;;;;;11.95;45.73;102219.28;5062745;27;45513;-74
2022/04/17 01:44:44;;;;;;;;;20.25;16.00;;;;;12.05;45.96;102235.63;5067656;28;45438;-74
2022/04/17 01:47:09;;;;;;;;;26.00;22.00;;;;;12.03;45.42;102239.06;5062100;27;45434;-74
2022/04/17 01:49:36;;;;;;;;;23.00;18.75;;;;;11.88;45.63;102227.84;5068559;28;47223;-74
2022/04/17 01:52:02;;;;;;;;;21.50;17.75;;;;;11.97;45.10;102244.09;5072825;28;45299;-74
2022/04/17 01:54:28;;;;;;;;;13.25;12.25;;;;;11.72;45.38;102207.69;5070716;28;45910;-74
2022/04/17 01:56:55;;;;;;;;;13.00;11.50;;;;;11.78;46.44;102226.50;5079279;27;46395;-74
2022/04/17 01:59:22;;;;;;;;;11.25;11.25;;;;;11.77;46.25;102232.63;5074546;28;46277;-74
2022/04/17 02:01:48;;;;;;;;;9.50;9.50;;;;;11.80;46.49;102240.72;5061080;28;46216;-73
2022/04/17 02:04:15;;;;;;;;;7.50;5.50;;;;;11.57;46.08;102202.66;5071251;28;45370;-74
2022/04/17 02:06:41;;;;;;;;;11.25;7.75;;;;;11.76;46.00;102236.09;5059925;28;45527;-73
2022/04/17 02:09:08;;;;;;;;;8.00;7.00;;;;;11.69;46.60;102228.75;5069768;28;45371;-74
2022/04/17 02:11:34;;;;;;;;;8.75;5.50;;;;;11.28;46.80;102153.72;5059920;28;45233;-74
2022/04/17 02:14:00;;;;;;;;;4.25;4.25;;;;;11.63;46.13;102227.66;5068710;28;45316;-73
2022/04/17 02:16:26;;;;;;;;;5.75;5.00;;;;;11.60;45.72;102223.97;5073750;28;45543;-73
2022/04/17 02:18:55;;;;;;;;;4.25;3.00;;;;;11.57;45.11;102223.84;5065073;28;45619;-73
2022/04/17 02:21:21;;;;;;;;;5.25;4.00;;;;;11.54;46.24;102218.38;5071907;28;45280;-73
2022/04/17 02:23:47;;;;;;;;;6.75;4.75;;;;;11.34;46.06;102194.63;5063955;28;45250;-73
2022/04/17 02:26:14;;;;;;;;;7.00;4.00;;;;;11.34;45.50;102194.63;5070957;28;45476;-74
2022/04/17 02:28:40;;;;;;;;;5.00;5.00;;;;;11.45;45.57;102220.66;5065508;28;45336;-74
2022/04/17 02:31:07;;;;;;;;;4.50;4.25;;;;;11.42;46.03;102206.44;5071714;27;45432;-73
2022/04/17 02:33:33;;;;;;;;;4.25;3.75;;;;;11.07;45.32;102154.63;5064475;28;45410;-73
2022/04/17 02:35:59;;;;;;;;;6.50;5.50;;;;;11.30;45.39;102192.66;5070300;27;45388;-73
2022/04/17 02:38:25;;;;;;;;;4.50;4.50;;;;;11.33;45.97;102199.84;5063198;28;45354;-73
2022/04/17 02:40:51;;;;;;;;;4.50;4.00;;;;;11.26;45.35;102195.09;5069220;27;45289;-73
2022/04/17 02:43:17;;;;;;;;;4.00;4.00;;;;;10.77;45.75;102113.56;5060925;28;45417;-73
2022/04/17 02:45:43;;;;;;;;;4.00;4.00;;;;;11.18;46.07;102185.09;5074006;27;45278;-73
2022/04/17 02:48:08;;;;;;;;;3.25;3.00;;;;;11.25;45.73;102204.78;5061088;28;46041;-74
2022/04/17 02:50:34;;;;;;;;;5.50;5.25;;;;;11.16;45.37;102193.81;5073827;28;45433;-74
2022/04/17 02:52:59;;;;;;;;;6.75;4.00;;;;;10.91;45.43;102149.47;5064227;28;45288;-73
2022/04/17 02:55:25;;;;;;;;;6.50;4.50;;;;;11.15;45.73;102203.50;5063864;28;46141;-74
2022/04/17 02:57:50;;;;;;;;;3.75;3.75;;;;;11.12;45.71;102192.78;5070197;28;45176;-74
2022/04/17 03:00:16;;;;;;;;;5.25;5.25;;;;;11.10;45.67;102193.53;5072475;28;45215;-73
2022/04/17 03:05:36;;;;;;;;;6.50;4.50;;;;;10.95;45.65;102184.09;5068875;28;45343;-73
2022/04/17 03:08:05;;;;;;;;;3.75;3.75;;;;;11.02;44.99;102187.91;5061433;28;45330;-73
2022/04/17 03:10:31;;;;;;;;;4.00;4.00;;;;;10.99;44.68;102195.69;5067397;28;45359;-73
2022/04/17 03:12:57;;;;;;;;;4.00;4.00;;;;;10.71;45.09;102149.47;5061590;28;45236;-73
2022/04/17 03:15:22;;;;;;;;;4.00;4.00;;;;;10.81;46.01;102166.69;5067751;28;45235;-74
2022/04/17 03:17:48;;;;;;;;;5.00;4.00;;;;;10.95;45.30;102193.75;5062235;28;45514;-74
2022/04/17 03:20:14;;;;;;;;;5.00;5.00;;;;;10.61;44.60;102134.03;5070423;27;45239;-74
2022/04/17 03:22:43;;;;;;;;;6.25;3.75;;;;;10.63;45.88;102142.03;5063647;28;45472;-74
2022/04/17 03:25:10;;;;;;;;;4.25;4.25;;;;;10.85;45.30;102180.94;5069759;27;45445;-73
2022/04/17 03:27:35;;;;;;;;;5.00;5.00;;;;;10.75;45.07;102177.91;5063508;27;45412;-73
2022/04/17 03:30:00;;;;;;;;;3.00;3.00;;;;;10.70;44.82;102176.78;5069048;28;45331;-73
2022/04/17 03:32:26;;;;;;;;;3.25;3.25;;;;;10.50;45.42;102140.56;5064216;28;45324;-74
2022/04/17 03:34:51;;;;;;;;;4.00;4.00;;;;;10.71;45.15;102181.22;5067886;28;45413;-73
2022/04/17 03:37:17;;;;;;;;;5.25;4.00;;;;;10.53;45.50;102151.31;5061756;27;47297;-73
2022/04/17 03:39:44;;;;;;;;;5.75;4.50;;;;;10.64;45.66;102179.16;5068637;28;45252;-73
2022/04/17 03:42:10;;;;;;;;;5.75;5.00;;;;;10.49;45.88;102154.63;5063150;27;45231;-73
2022/04/17 03:44:35;;;;;;;;;4.75;4.75;;;;;10.41;46.30;102142.78;5066884;28;45414;-73
2022/04/17 03:47:01;;;;;;;;;6.00;5.00;;;;;10.36;45.69;102142.56;5073463;28;48084;-74
2022/04/17 03:49:26;;;;;;;;;4.00;3.00;;;;;10.44;46.50;102153.50;5067708;28;45798;-74
2022/04/17 03:51:52;;;;;;;;;5.25;4.50;;;;;10.23;46.07;102127.84;5071459;28;45354;-73
2022/04/17 03:54:18;;;;;;;;;4.75;3.00;;;;;10.12;45.15;102107.06;5063918;28;45300;-73
2022/04/17 03:56:46;;;;;;;;;3.50;3.50;;;;;10.32;46.35;102143.25;5071228;27;46091;-74
2022/04/17 03:59:11;;;;;;;;;3.50;3.50;;;;;10.24;46.20;102147.25;5068582;28;45423;-74
2022/04/17 04:01:37;;;;;;;;;5.50;5.00;;;;;10.39;46.30;102169.16;5059325;28;45490;-74
2022/04/17 04:04:02;;;;;;;;;6.00;5.00;;;;;10.37;46.45;102167.28;5071206;27;45466;-74
2022/04/17 04:06:28;;;;;;;;;6.00;5.00;;;;;10.16;46.20;102131.03;5058862;27;46115;-74
2022/04/17 04:08:53;;;;;;;;;4.50;4.00;;;;;10.26;46.11;102158.81;5075665;28;45421;-74
2022/04/17 04:11:19;;;;;;;;;3.00;3.00;;;;;10.05;45.95;102119.03;5064353;27;45169;-73
2022/04/17 04:13:44;;;;;;;;;5.25;5.00;;;;;10.19;45.85;102151.41;5068001;28;45461;-73
2022/04/17 04:16:10;;;;;;;;;4.75;4.75;;;;;9.75;45.89;102087.72;5065164;27;46456;-73
2022/04/17 04:18:36;;;;;;;;;8.50;4.00;;;;;10.17;45.61;102159.28;5074163;28;45259;-74
2022/04/17 04:21:02;;;;;;;;;5.50;4.00;;;;;9.93;45.96;102126.38;5074294;28;45342;-73
2022/04/17 04:23:31;;;;;;;;;6.75;4.00;;;;;10.11;46.30;102163.34;5065848;28;45460;-73
2022/04/17 04:25:57;;;;;;;;;5.00;4.25;;;;;10.06;46.32;102166.69;5072564;28;45299;-73
2022/04/17 04:28:36;;;;;;;;;3.00;2.50;;;;;9.76;45.28;102109.72;5064816;28;45378;-73
2022/04/17 04:31:19;;;;;;;;;6.00;4.00;;;;;9.91;45.79;102157.09;5073020;28;45274;-73
2022/04/17 04:33:44;;;;;;;;;4.00;4.00;;;;;9.96;46.13;102166.16;5066526;28;45256;-73
2022/04/17 04:36:11;;;;;;;;;5.00;5.00;;;;;9.60;45.87;102106.31;5070008;27;46234;-73
2022/04/17 04:38:38;;;;;;;;;9.50;7.50;;;;;9.84;45.88;102150.63;5065515;28;45311;-73
2022/04/17 04:41:04;;;;;;;;;3.50;3.25;;;;;9.66;45.71;102121.56;5072825;27;45374;-74
2022/04/17 04:43:30;;;;;;;;;4.00;4.00;;;;;9.90;46.13;102158.84;5072786;28;45953;-73
2022/04/17 04:46:07;;;;;;;;;3.25;3.25;;;;;9.81;45.65;102153.13;5067586;28;45264;-74
2022/04/17 04:51:19;;;;;;;;;3.25;3.25;;;;;9.81;46.16;102164.56;5069538;28;45279;-76
2022/04/17 04:53:45;;;;;;;;;3.50;3.50;;;;;9.64;45.87;102139.09;5067691;28;45598;-75
2022/04/17 04:56:10;;;;;;;;;4.25;4.00;;;;;9.77;46.30;102166.97;5071857;28;45236;-75
2022/04/17 04:58:36;;;;;;;;;4.00;4.00;;;;;9.51;46.17;102131.38;5068538;28;45441;-76
2022/04/17 05:01:02;;;;;;;;;4.00;4.00;;;;;9.72;45.96;102168.47;5068499;28;45375;-76
2022/04/17 05:03:28;;;;;;;;;5.50;4.50;;;;;9.48;46.76;102145.31;5064574;28;45359;-75
2022/04/17 05:05:53;;;;;;;;;3.00;3.00;;;;;9.66;47.42;102173.47;5065509;28;48233;-76
2022/04/17 05:08:19;;;;;;;;;5.00;5.00;;;;;9.49;46.68;102160.31;5069876;28;46224;-76
2022/04/17 05:10:45;;;;;;;;;5.00;5.00;;;;;9.58;47.03;102184.56;5076479;27;45358;-74
2022/04/17 05:13:11;;;;;;;;;4.50;4.50;;;;;9.58;47.02;102183.66;5067032;28;45453;-75
2022/04/17 05:15:37;;;;;;;;;7.75;5.75;;;;;9.44;47.12;102160.91;5070104;28;47527;-75
2022/04/17 05:18:02;;;;;;;;;6.00;5.00;;;;;9.56;47.79;102180.03;5064671;28;45685;-75
2022/04/17 05:20:27;;;;;;;;;5.25;5.00;;;;;9.39;46.37;102158.97;5059467;27;45402;-74
2022/04/17 05:22:56;;;;;;;;;5.50;5.50;;;;;8.96;47.76;102089.88;5062034;28;45585;-74
2022/04/17 05:25:24;;;;;;;;;6.50;4.50;;;;;9.43;47.01;102170.56;5075443;28;45983;-74
2022/04/17 05:27:49;;;;;;;;;4.00;4.00;;;;;9.47;47.61;102187.50;5063806;27;45378;-74
2022/04/17 05:30:14;;;;;;;;;5.25;4.25;;;;;9.45;47.47;102181.22;5088656;27;45280;-74
2022/04/17 05:32:40;;;;;;;;;8.25;6.25;;;;;9.41;47.54;102182.81;5064038;27;45417;-75
2022/04/17 05:35:06;;;;;;;;;6.25;5.00;;;;;9.24;47.80;102162.53;5087241;27;47120;-74
2022/04/17 05:37:31;;;;;;;;;4.00;4.00;;;;;9.23;47.63;102166.91;5062673;27;45796;-74
2022/04/17 05:39:56;;;;;;;;;7.75;5.00;;;;;9.29;47.15;102171.59;5070030;27;45383;-75
2022/04/17 05:42:22;;;;;;;;;4.75;4.00;;;;;9.31;47.07;102188.44;5062805;27;45294;-74
2022/04/17 05:44:49;;;;;;;;;9.75;4.75;;;;;9.13;47.44;102149.72;5065110;28;46292;-76
2022/04/17 05:47:14;;;;;;;;;8.25;5.75;;;;;9.09;47.32;102134.53;5059497;28;45232;-75
2022/04/17 05:49:40;;;;;;;;;5.00;5.00;;;;;9.15;46.47;102147.13;5072877;27;45738;-76
2022/04/17 05:52:05;;;;;;;;;7.00;5.25;;;;;9.33;46.33;102178.88;5059068;28;45529;-74
2022/04/17 05:54:31;;;;;;;;;4.00;4.00;;;;;9.23;46.51;102168.66;5063995;28;45272;-75
2022/04/17 05:56:56;;;;;;;;;6.25;4.75;;;;;8.87;46.61;102116.69;5061267;28;45406;-75
2022/04/17 05:59:22;;;;;;;;;4.00;4.00;;;;;9.25;46.92;102182.84;5074539;28;45506;-75
2022/04/17 06:01:47;;;;;;;;;5.00;4.50;;;;;9.35;47.17;102190.38;5058596;28;45409;-75
2022/04/17 06:04:13;;;;;;;;;6.75;5.00;;;;;9.26;46.82;102174.97;5067799;28;45967;-75
2022/04/17 06:06:38;;;;;;;;;5.50;4.50;;;;;9.41;46.74;102190.72;5059040;27;45482;-75
2022/04/17 06:09:03;;;;;;;;;8.50;6.25;;;;;9.30;47.28;102173.41;5062663;28;45362;-75
2022/04/17 06:11:29;;;;;;;;;6.25;4.25;;;;;9.19;45.71;102139.47;5060471;28;45509;-75
2022/04/17 06:13:55;;;;;;;;;3.75;3.00;;;;;9.45;46.56;102189.13;5065756;28;45384;-74
2022/04/17 06:16:21;;;;;;;;;5.00;5.00;;;;;9.27;46.77;102155.72;5073845;28;45318;-73
2022/04/17 06:18:46;;;;;;;;;6.25;5.00;;;;;9.33;47.06;102161.28;5070198;27;45578;-72
2022/04/17 06:21:11;;;;;;;;;5.25;5.25;;;;;9.65;46.41;102191.03;5058685;28;45621;-72
2022/04/17 06:23:37;;;;;;;;;6.75;4.50;;;;;9.57;45.75;102158.97;5070331;28;47090;-72
2022/04/17 06:26:02;;;;;;;;;5.75;5.75;;;;;9.67;45.50;102151.53;5058583;28;45237;-72
2022/04/17 06:28:28;;;;;;;;;7.75;7.75;;;;;9.84;45.23;102156.81;5063566;28;45379;-72
2022/04/17 06:30:54;;;;;;;;;6.00;5.00;;;;;10.17;44.45;102190.09;5057878;28;45283;-72
2022/04/17 06:33:19;;;;;;;;;7.00;3.50;;;;;10.35;44.35;102187.44;5063550;28;45433;-72
2022/04/17 06:35:45;;;;;;;;;7.25;4.00;;;;;10.38;43.76;102161.16;5058284;27;45209;-71
2022/04/17 06:38:10;;;;;;;;;5.00;5.00;;;;;10.60;42.98;102174.53;5063010;28;45158;-72
2022/04/17 06:40:36;;;;;;;;;4.75;4.75;;;;;10.81;43.88;102173.69;5059528;28;45254;-72
2022/04/17 06:43:10;;;;;;;;;5.50;5.50;;;;;10.74;43.24;102117.88;5065298;28;46163;-72
2022/04/17 06:45:38;;;;;;;;;8.50;6.00;;;;;11.29;42.26;102182.03;5062695;28;46038;-72
2022/04/17 06:48:16;;;;;;;;;7.00;5.00;;;;;11.48;42.34;102181.97;5074410;28;45450;-72
2022/04/17 06:50:43;;;;;;;;;7.00;6.00;;;;;11.70;40.91;102170.53;5063438;28;45484;-71
2022/04/17 06:53:09;;;;;;;;;4.50;4.50;;;;;11.79;40.21;102151.47;5062976;28;46073;-73
2022/04/17 06:55:34;;;;;;;;;4.25;4.25;;;;;12.03;40.92;102152.50;5060255;28;45446;-72
2022/04/17 06:57:59;;;;;;;;;6.00;6.00;;;;;12.34;39.71;102159.00;5065757;28;45817;-74
2022/04/17 07:00:25;;;;;;;;;4.25;4.25;;;;;12.32;41.13;102132.47;5073754;28;46210;-76
2022/04/17 07:02:50;;;;;;;;;4.75;4.50;;;;;12.41;39.12;102116.00;5061937;28;46180;-77
2022/04/17 07:05:16;;;;;;;;;7.50;6.75;;;;;12.75;39.25;102143.78;5060358;27;45401;-76
2022/04/17 07:07:42;;;;;;;;;7.25;5.00;;;;;13.05;37.79;102154.63;5060372;28;45544;-77
2022/04/17 07:10:09;;;;;;;;;4.00;4.00;;;;;13.27;39.76;102156.28;5059011;28;45348;-77
2022/04/17 07:12:34;;;;;;;;;4.00;4.00;;;;;13.24;37.49;102116.31;5060522;28;46800;-75
2022/04/17 07:15:01;;;;;;;;;8.25;6.75;;;;;13.31;37.78;102097.13;5067755;27;45315;-78
2022/04/17 07:17:39;;;;;;;;;6.50;6.50;;;;;13.78;38.59;102135.00;5076259;27;45686;-78
2022/04/17 07:20:06;;;;;;;;;7.00;6.00;;;;;14.06;36.17;102133.25;5060534;27;45618;-78
2022/04/17 07:22:36;;;;;;;;;6.00;5.00;;;;;14.24;37.19;102124.91;5058772;28;46316;-78
2022/04/17 07:25:04;;;;;;;;;8.75;7.00;;;;;14.40;35.98;102134.28;5063551;27;45396;-78
2022/04/17 07:27:44;;;;;;;;;8.25;6.25;;;;;14.44;37.67;102113.09;5063913;28;45828;-76
2022/04/17 07:30:10;;;;;;;;;6.50;5.00;;;;;14.75;35.77;102127.34;5081847;27;46393;-78
2022/04/17 07:32:35;;;;;;;;;9.25;6.00;;;;;14.53;35.00;102056.63;5066347;28;45285;-78
2022/04/17 07:35:00;;;;;;;;;5.75;5.00;;;;;14.99;35.15;102112.06;5065420;27;44758;-80
2022/04/17 07:37:26;;;;;;;;;6.00;5.00;;;;;15.14;37.13;102098.22;5058749;27;45151;-77
2022/04/17 07:39:52;;;;;;;;;8.00;6.75;;;;;15.44;35.38;102118.56;5062161;28;45473;-77
2022/04/17 07:42:19;;;;;;;;;7.00;7.00;;;;;15.28;35.28;102079.94;5058671;28;45885;-77
2022/04/17 07:44:44;;;;;;;;;8.00;7.00;;;;;15.49;34.75;102095.59;5066502;28;45250;-75
2022/04/17 07:47:10;;;;;;;;;8.00;8.00;;;;;15.53;35.19;102080.56;5061008;28;45229;-75
2022/04/17 07:49:35;;;;;;;;;8.33;7.67;;;;;15.70;34.25;102113.91;5069533;28;47149;-74
2022/04/17 07:52:01;;;;;;;;;9.00;7.00;;;;;15.73;35.20;102086.41;5063140;27;45195;-74
2022/04/17 07:54:26;;;;;;;;;7.33;7.00;;;;;15.76;33.11;102092.72;5064680;28;47243;-77
2022/04/17 07:56:52;;;;;;;;;6.33;6.00;;;;;15.85;33.56;102108.94;5064955;27;45649;-76
2022/04/17 07:59:17;;;;;;;;;8.00;7.00;;;;;15.89;33.53;102083.25;5063110;28;45840;-75
2022/04/17 08:01:45;;;;;;;;;8.00;7.33;;;;;15.70;33.17;102047.25;5067640;27;45619;-75
2022/04/17 08:04:10;;;;;;;;;8.00;6.00;;;;;16.05;34.63;102096.06;5068171;27;45545;-75
2022/04/17 08:06:36;;;;;;;;;9.33;8.00;;;;;15.73;33.12;102027.75;5063610;28;45376;-75
2022/04/17 08:09:02;;;;;;;;;7.00;7.00;;;;;16.13;34.80;102079.31;5064123;28;45399;-75
2022/04/17 08:11:29;;;;;;;;;7.00;6.33;;;;;16.07;32.72;102078.31;5063154;28;46130;-75
2022/04/17 08:13:55;;;;;;;;;8.33;7.00;;;;;16.40;31.97;102095.03;5067004;28;45213;-75
2022/04/17 08:16:21;;;;;;;;;9.33;7.00;;;;;16.59;33.69;102077.63;5061934;28;45334;-76
2022/04/17 08:18:46;;;;;;;;;7.67;7.67;;;;;16.87;31.88;102096.03;5070995;28;45236;-76
2022/04/17 08:21:12;;;;;;;;;7.33;7.00;;;;;17.13;31.29;102091.16;5065417;28;45653;-75
2022/04/17 08:23:37;;;;;;;;;7.00;5.67;;;;;17.24;30.50;102088.69;5064996;28;45661;-77
2022/04/17 08:26:04;;;;;;;;;7.00;6.00;;;;;17.35;30.00;102081.75;5065936;28;45499;-76
2022/04/17 08:28:30;;;;;;;;;3.00;3.00;;;;;17.40;31.97;102047.97;5073993;28;45307;-76
2022/04/17 08:30:56;;;;;;;;;7.67;7.00;;;;;17.60;31.28;102055.44;5062697;28;46463;-75
2022/04/17 08:33:23;;;;;;;;;6.33;6.33;;;;;17.99;31.80;102073.88;5063682;28;48126;-75
2022/04/17 08:35:48;;;;;;;;;9.00;7.00;;;;;18.28;31.15;102074.25;5069779;28;45469;-74
2022/04/17 08:38:15;;;;;;;;;8.00;6.33;;;;;18.53;31.11;102067.44;5063779;28;45530;-76
2022/04/17 08:40:41;;;;;;;;;6.00;5.67;;;;;18.74;29.26;102074.84;5067548;28;47523;-74
2022/04/17 08:43:08;;;;;;;;;6.00;4.00;;;;;18.70;29.15;102066.72;5075116;28;45334;-75
2022/04/17 08:45:34;;;;;;;;;6.67;6.67;;;;;18.44;27.14;102069.09;5068838;27;45324;-74
2022/04/17 08:48:01;;;;;;;;;5.00;5.00;;;;;18.99;27.92;102065.31;5063868;28;45364;-75
2022/04/17 08:50:27;;;;;;;;;6.00;6.00;;;;;19.23;27.93;102075.34;5075465;27;45359;-74
2022/04/17 08:52:53;;;;;;;;;5.33;5.33;;;;;19.38;28.73;102044.16;5064828;28;45359;-74
2022/04/17 08:55:20;;;;;;;;;6.33;4.00;;;;;19.41;28.15;102028.13;5069525;28;45246;-75
2022/04/17 08:57:45;;;;;;;;;6.00;6.00;;;;;19.90;27.01;102063.34;5076281;28;46889;-75
2022/04/17 09:00:16;;;;;;;;;5.00;5.00;;;;;20.15;27.07;102050.06;5069199;28;45385;-74
2022/04/17 09:02:42;;;;;;;;;6.67;5.33;;;;;20.39;25.65;102069.00;5062807;28;45431;-75
2022/04/17 09:05:12;;;;;;;;;7.33;5.67;;;;;20.62;26.74;102062.84;5069395;27;45353;-74
2022/04/17 09:07:39;;;;;;;;;6.00;5.00;;;;;20.65;25.60;102031.50;5077756;28;45748;-74
2022/04/17 09:10:05;;;;;;;;;5.33;4.33;;;;;20.92;26.48;102041.41;5070061;28;47986;-75
2022/04/17 09:12:31;;;;;;;;;5.67;5.67;;;;;20.98;24.79;102041.41;5060887;28;45308;-75
2022/04/17 09:14:57;;;;;;;;;6.67;5.67;;;;;21.16;24.18;102053.06;5069838;28;45426;-74
2022/04/17 09:17:34;;;;;;;;;7.00;6.00;;;;;21.43;26.17;102046.84;5069118;27;45524;-76
2022/04/17 09:20:01;;;;;;;;;6.33;4.67;;;;;21.29;24.00;102036.03;5074189;28;45773;-74
2022/04/17 09:22:47;;;;;;;;;3.00;3.00;;;;;21.47;26.10;102045.03;5067938;28;45284;-75
2022/04/17 09:25:12;;;;;;;;;1.67;0.67;;;;;21.48;24.86;102036.03;5073985;28;45315;-75
2022/04/17 09:27:41;;;;;;;;;2.67;1.33;;;;;21.54;22.85;102039.66;5067067;28;45651;-74
2022/04/17 09:30:31;;;;;;;;;4.33;4.00;;;;;21.63;23.90;102025.28;5072957;28;45357;-74
2022/04/17 09:32:57;;;;;;;;;4.00;4.00;;;;;21.89;25.47;102035.97;5064398;28;45612;-74
2022/04/17 09:35:25;;;;;;;;;5.00;4.00;;;;;21.89;23.83;102007.25;5073705;28;45472;-75
2022/04/17 09:37:55;;;;;;;;;4.00;4.00;;;;;21.97;23.94;102022.50;5062582;28;45584;-74
2022/04/17 09:40:21;;;;;;;;;3.33;3.33;;;;;22.23;25.16;102022.44;5070418;28;46023;-75
2022/04/17 09:42:49;;;;;;;;;4.00;4.00;;;;;22.36;23.64;102023.28;5062547;28;45465;-75
2022/04/17 09:45:15;;;;;;;;;3.33;3.33;;;;;22.22;24.87;101964.09;5069979;28;45437;-74
2022/04/17 09:47:40;;;;;;;;;5.33;3.67;;;;;22.69;24.96;101996.13;5077777;28;45433;-75
2022/04/17 09:50:07;;;;;;;;;3.67;2.00;;;;;22.94;24.24;102004.94;5074051;27;45407;-75
2022/04/17 09:52:39;;;;;;;;;5.00;5.00;;;;;22.98;21.76;102000.44;5063122;28;45422;-74
2022/04/17 09:55:05;;;;;;;;;4.33;3.00;;;;;23.01;21.20;101986.94;5072258;28;45348;-73
2022/04/17 09:57:38;;;;;;;;;5.00;4.00;;;;;23.16;22.23;101983.19;5068516;28;45477;-74
2022/04/17 10:00:10;;;;;;;;;4.33;4.33;;;;;23.16;23.15;101993.97;5071059;28;45449;-73
2022/04/17 10:02:37;;;;;;;;;6.00;5.00;;;;;22.74;20.52;101986.22;5060229;28;45238;-73
2022/04/17 10:05:03;;;;;;;;;7.00;5.00;;;;;22.62;22.45;101975.50;5070699;28;45525;-74
2022/04/17 10:07:31;;;;;;;;;0.00;0.00;;;;;22.92;23.37;101968.09;5059321;28;45348;-74
2022/04/17 10:09:57;;;;;;;;;3.00;3.00;;;;;23.29;23.72;101987.56;5069907;27;46028;-74
2022/04/17 10:12:22;;;;;;;;;4.00;4.00;;;;;23.53;23.15;101972.06;5075114;28;45390;-74
2022/04/17 10:14:52;;;;;;;;;2.00;2.00;;;;;23.48;21.49;101958.59;5067575;28;45234;-74
2022/04/17 10:17:22;;;;;;;;;6.00;6.00;;;;;23.59;21.34;101972.00;5067715;27;45197;-73
2022/04/17 10:19:48;;;;;;;;;4.67;4.67;;;;;23.48;21.39;101968.50;5067190;28;45363;-73
2022/04/17 10:22:18;;;;;;;;;3.33;3.33;;;;;23.58;20.94;101965.72;5067409;27;45295;-75
2022/04/17 10:24:51;;;;;;;;;3.67;3.67;;;;;23.85;20.10;101969.00;5069461;28;45488;-74
2022/04/17 10:27:22;;;;;;;;;4.33;4.33;;;;;23.72;19.78;101965.56;5066307;27;45218;-74
2022/04/17 10:29:57;;;;;;;;;3.67;3.67;;;;;23.88;21.49;101936.56;5070456;28;46474;-74
2022/04/17 10:32:32;;;;;;;;;3.00;3.00;;;;;24.14;19.15;101960.53;5063490;28;45377;-74
2022/04/17 10:35:20;;;;;;;;;5.00;3.00;;;;;24.26;20.60;101960.38;5068484;28;45410;-75
2022/04/17 10:38:13;;;;;;;;;3.33;3.33;;;;;24.31;20.34;101953.09;5062751;27;45552;-72
2022/04/17 10:40:39;;;;;;;;;5.00;4.00;;;;;24.58;19.81;101931.13;5073827;28;45296;-72
2022/04/17 10:43:06;;;;;;;;;6.33;4.33;;;;;24.84;19.82;101915.34;5073171;27;45205;-72
2022/04/17 10:45:31;;;;;;;;;3.33;3.33;;;;;25.11;21.20;101913.06;5067827;27;45535;-73
2022/04/17 10:48:10;;;;;;;;;3.75;2.50;;;;;25.32;20.42;101933.44;5061331;28;45197;-73
2022/04/17 10:50:42;;;;;;;;;3.75;3.75;;;;;25.50;18.37;101915.97;5072185;28;45640;-72
2022/04/17 10:53:22;;;;;;;;;4.67;4.00;;;;;25.54;19.53;101924.00;5063852;28;45802;-73
2022/04/17 10:56:08;;;;;;;;;4.00;4.00;;;;;25.65;20.54;101922.00;5066590;28;45395;-73
2022/04/17 10:58:40;;;;;;;;;5.00;4.00;;;;;25.45;20.21;101870.03;5068616;28;45240;-73
2022/04/17 11:01:06;;;;;;;;;4.00;3.00;;;;;25.74;17.13;101898.31;5082019;27;47379;-72
2022/04/17 11:03:34;;;;;;;;;2.25;2.00;;;;;25.97;18.51;101897.88;5062673;28;45957;-73
2022/04/17 11:06:31;;;;;;;;;5.00;4.00;;;;;26.13;19.52;101893.88;5065054;27;45482;-73
2022/04/17 11:09:25;;;;;;;;;4.00;4.00;;;;;26.09;17.17;101889.47;5066327;28;45216;-73
2022/04/17 11:11:51;;;;;;;;;3.75;3.75;;;;;26.19;17.43;101865.75;5059238;28;46304;-73
2022/04/17 11:14:26;;;;;;;;;4.75;3.25;;;;;26.36;18.39;101862.63;5063832;28;45993;-72
2022/04/17 11:16:53;;;;;;;;;3.00;3.00;;;;;26.50;18.27;101869.53;5061103;28;45279;-73
2022/04/17 11:19:22;;;;;;;;;6.50;4.25;;;;;26.63;19.00;101852.94;5067204;27;45573;-73
2022/04/17 11:21:50;;;;;;;;;4.25;3.00;;;;;26.89;17.75;101864.00;5062093;28;46236;-73
2022/04/17 11:24:15;;;;;;;;;4.00;4.00;;;;;26.95;16.68;101871.97;5070387;28;45368;-74
2022/04/17 11:26:53;;;;;;;;;5.50;4.50;;;;;27.09;17.67;101854.44;5073570;28;45381;-74
2022/04/17 11:29:38;;;;;;;;;3.00;2.75;;;;;26.86;17.62;101857.75;5069496;28;45385;-74
2022/04/17 11:32:16;;;;;;;;;4.25;4.25;;;;;27.02;15.63;101854.56;5062191;28;45376;-73
2022/04/17 11:34:42;;;;;;;;;2.75;2.75;;;;;27.16;16.22;101854.22;5070899;28;45257;-73
2022/04/17 11:37:09;;;;;;;;;3.50;3.25;;;;;27.04;16.45;101818.38;5067596;27;45362;-73